createdAt,value
2023-09-29T00:01:40.256Z,100.00
2023-09-29T00:04:07.586Z,100.00
2023-09-29T00:06:34.760Z,100.00
2023-09-29T00:09:02.340Z,100.00
2023-09-29T00:11:32.858Z,100.00
2023-09-29T00:14:00.133Z,100.00
2023-09-29T00:16:27.135Z,100.00
2023-09-29T00:18:54.360Z,100.00
2023-09-29T00:21:21.332Z,100.00
2023-09-29T00:23:48.313Z,100.00
2023-09-29T00:26:15.282Z,100.00
2023-09-29T00:28:45.608Z,100.00
2023-09-29T00:31:12.449Z,100.00
2023-09-29T00:33:39.332Z,100.00
2023-09-29T00:36:06.296Z,100.00
2023-09-29T00:38:34.925Z,100.00
2023-09-29T00:41:02.786Z,100.00
2023-09-29T00:43:29.735Z,100.00
2023-09-29T00:45:57.138Z,100.00
2023-09-29T00:48:24.253Z,100.00
2023-09-29T00:50:51.569Z,100.00
2023-09-29T00:53:19.691Z,100.00
2023-09-29T00:55:47.420Z,100.00
2023-09-29T00:58:15.698Z,100.00
2023-09-29T01:00:46.492Z,100.00
2023-09-29T01:03:16.664Z,100.00
2023-09-29T01:05:48.860Z,100.00
2023-09-29T01:08:25.324Z,100.00
2023-09-29T01:10:54.062Z,100.00
2023-09-29T01:13:22.469Z,100.00
2023-09-29T01:15:50.428Z,100.00
2023-09-29T01:18:17.900Z,100.00
2023-09-29T01:20:45.386Z,100.00
2023-09-29T01:23:12.468Z,100.00
2023-09-29T01:25:39.914Z,100.00
2023-09-29T01:28:14.786Z,100.00
2023-09-29T01:30:46.256Z,100.00
2023-09-29T01:33:13.732Z,100.00
2023-09-29T01:35:41.046Z,100.00
2023-09-29T01:38:07.936Z,100.00
2023-09-29T01:40:34.745Z,100.00
2023-09-29T01:43:01.594Z,100.00
2023-09-29T01:45:28.887Z,100.00
2023-09-29T01:47:56.682Z,100.00
2023-09-29T01:50:24.604Z,100.00
2023-09-29T01:52:52.208Z,100.00
2023-09-29T01:55:25.640Z,100.00
2023-09-29T01:57:56.090Z,100.00
2023-09-29T02:00:27.020Z,100.00
2023-09-29T02:02:55.821Z,100.00
2023-09-29T02:05:23.163Z,99.90
2023-09-29T02:07:50.578Z,99.97
2023-09-29T02:10:22.418Z,99.67
2023-09-29T02:12:58.469Z,99.71
2023-09-29T02:15:26.380Z,99.76
2023-09-29T02:17:53.843Z,99.74
2023-09-29T02:20:30.691Z,99.95
2023-09-29T02:22:59.581Z,100.00
2023-09-29T02:25:27.068Z,100.00
2023-09-29T02:27:58.435Z,100.00
2023-09-29T02:30:26.891Z,100.00
2023-09-29T02:32:53.952Z,100.00
2023-09-29T02:35:21.700Z,100.00
2023-09-29T02:37:49.242Z,100.00
2023-09-29T02:40:16.362Z,100.00
2023-09-29T02:42:47.636Z,100.00
2023-09-29T02:45:15.473Z,100.00
2023-09-29T02:47:48.526Z,100.00
2023-09-29T02:50:15.952Z,100.00
2023-09-29T02:52:43.355Z,100.00
2023-09-29T02:55:16.195Z,100.00
2023-09-29T02:57:44.730Z,100.00
2023-09-29T03:00:28.273Z,100.00
2023-09-29T03:02:55.543Z,100.00
2023-09-29T03:05:23.566Z,100.00
2023-09-29T03:07:53.037Z,100.00
2023-09-29T03:10:24.479Z,100.00
2023-09-29T03:12:51.406Z,100.00
2023-09-29T03:15:18.693Z,100.00
2023-09-29T03:17:47.955Z,100.00
2023-09-29T03:20:15.925Z,100.00
2023-09-29T03:22:47.005Z,100.00
2023-09-29T03:25:18.319Z,100.00
2023-09-29T03:27:46.305Z,100.00
2023-09-29T03:30:13.879Z,100.00
2023-09-29T03:32:40.648Z,100.00
2023-09-29T03:35:10.030Z,100.00
2023-09-29T03:37:40.913Z,100.00
2023-09-29T03:40:10.166Z,100.00
2023-09-29T03:42:39.234Z,100.00
2023-09-29T03:45:07.279Z,100.00
2023-09-29T03:47:35.012Z,100.00
2023-09-29T03:50:02.960Z,100.00
2023-09-29T03:52:33.249Z,100.00
2023-09-29T03:55:00.390Z,100.00
2023-09-29T03:57:27.089Z,100.00
2023-09-29T03:59:53.869Z,100.00
2023-09-29T04:02:21.827Z,100.00
2023-09-29T04:04:48.820Z,100.00
2023-09-29T04:07:16.862Z,100.00
2023-09-29T04:09:43.741Z,100.00
2023-09-29T04:12:10.570Z,100.00
2023-09-29T04:14:37.315Z,100.00
2023-09-29T04:17:05.869Z,100.00
2023-09-29T04:19:33.580Z,100.00
2023-09-29T04:22:01.152Z,100.00
2023-09-29T04:24:28.408Z,100.00
2023-09-29T04:26:55.167Z,100.00
2023-09-29T04:29:22.067Z,100.00
2023-09-29T04:31:48.853Z,100.00
2023-09-29T04:34:15.601Z,100.00
2023-09-29T04:36:43.697Z,100.00
2023-09-29T04:39:10.800Z,100.00
2023-09-29T04:41:38.873Z,100.00
2023-09-29T04:44:06.658Z,100.00
2023-09-29T04:46:35.380Z,100.00
2023-09-29T04:49:05.004Z,100.00
2023-09-29T04:51:33.922Z,100.00
2023-09-29T04:54:01.437Z,100.00
2023-09-29T04:56:28.245Z,100.00
2023-09-29T04:58:55.489Z,100.00
2023-09-29T05:01:25.026Z,100.00
2023-09-29T05:03:54.451Z,100.00
2023-09-29T05:06:25.044Z,100.00
2023-09-29T05:08:52.754Z,100.00
2023-09-29T05:11:24.398Z,100.00
2023-09-29T05:13:52.150Z,100.00
2023-09-29T05:16:18.946Z,100.00
2023-09-29T05:18:46.461Z,100.00
2023-09-29T05:21:13.417Z,100.00
2023-09-29T05:23:40.503Z,100.00
2023-09-29T05:26:08.863Z,100.00
2023-09-29T05:28:41.243Z,100.00
2023-09-29T05:31:08.099Z,100.00
2023-09-29T05:33:35.591Z,100.00
2023-09-29T05:36:02.946Z,100.00
2023-09-29T05:38:30.093Z,100.00
2023-09-29T05:40:57.048Z,100.00
2023-09-29T05:43:23.814Z,100.00
2023-09-29T05:45:50.561Z,100.00
2023-09-29T05:48:17.617Z,100.00
2023-09-29T05:50:44.483Z,100.00
2023-09-29T05:53:12.468Z,100.00
2023-09-29T05:55:39.702Z,100.00
2023-09-29T05:58:06.883Z,100.00
2023-09-29T06:00:34.313Z,100.00
2023-09-29T06:03:01.512Z,100.00
2023-09-29T06:05:28.602Z,100.00
2023-09-29T06:07:58.060Z,100.00
2023-09-29T06:10:26.166Z,100.00
2023-09-29T06:12:53.038Z,100.00
2023-09-29T06:15:20.229Z,100.00
2023-09-29T06:17:47.113Z,100.00
2023-09-29T06:20:14.019Z,100.00
2023-09-29T06:22:40.809Z,100.00
2023-09-29T06:25:07.912Z,100.00
2023-09-29T06:27:34.627Z,100.00
2023-09-29T06:30:01.389Z,100.00
2023-09-29T06:32:28.315Z,100.00
2023-09-29T06:34:55.033Z,100.00
2023-09-29T06:37:21.730Z,100.00
2023-09-29T06:39:48.522Z,100.00
2023-09-29T06:42:15.240Z,100.00
2023-09-29T06:44:41.929Z,100.00
2023-09-29T06:47:08.761Z,100.00
2023-09-29T06:49:35.448Z,100.00
2023-09-29T06:52:02.346Z,100.00
2023-09-29T06:54:29.346Z,100.00
2023-09-29T06:56:56.135Z,100.00
2023-09-29T06:59:22.934Z,100.00
2023-09-29T07:01:49.681Z,100.00
2023-09-29T07:04:16.710Z,100.00
2023-09-29T07:06:43.673Z,100.00
2023-09-29T07:09:11.105Z,100.00
2023-09-29T07:11:41.369Z,100.00
2023-09-29T07:14:08.272Z,100.00
2023-09-29T07:16:35.050Z,100.00
2023-09-29T07:19:02.682Z,100.00
2023-09-29T07:21:29.450Z,100.00
2023-09-29T07:23:57.947Z,100.00
2023-09-29T07:26:24.930Z,100.00
2023-09-29T07:28:51.684Z,100.00
2023-09-29T07:31:18.493Z,99.70
2023-09-29T07:33:45.417Z,99.46
2023-09-29T07:36:12.362Z,99.35
2023-09-29T07:38:39.168Z,99.00
2023-09-29T07:41:06.422Z,98.92
2023-09-29T07:43:33.254Z,98.47
2023-09-29T07:46:00.066Z,99.24
2023-09-29T07:48:28.454Z,99.07
2023-09-29T07:50:55.317Z,99.21
2023-09-29T07:53:22.120Z,99.12
2023-09-29T07:55:48.807Z,99.48
2023-09-29T07:58:15.555Z,99.95
2023-09-29T08:00:43.209Z,99.80
2023-09-29T08:03:10.340Z,99.71
2023-09-29T08:05:37.186Z,99.44
2023-09-29T08:08:04.485Z,99.79
2023-09-29T08:10:31.360Z,99.23
2023-09-29T08:12:58.051Z,98.62
2023-09-29T08:15:25.821Z,99.09
2023-09-29T08:17:52.902Z,98.91
2023-09-29T08:20:21.580Z,98.59
2023-09-29T08:22:51.035Z,98.33
2023-09-29T08:25:20.721Z,98.38
2023-09-29T08:27:47.976Z,98.01
2023-09-29T08:30:15.044Z,97.79
2023-09-29T08:32:44.725Z,97.55
2023-09-29T08:35:15.723Z,97.43
2023-09-29T08:37:43.866Z,97.01
2023-09-29T08:40:13.614Z,96.59
2023-09-29T08:42:42.750Z,96.57
2023-09-29T08:45:11.563Z,95.27
2023-09-29T08:47:39.675Z,95.32
2023-09-29T08:50:11.128Z,95.59
2023-09-29T08:52:41.843Z,94.94
2023-09-29T08:55:09.066Z,94.51
2023-09-29T08:57:35.990Z,94.07
2023-09-29T09:00:04.497Z,94.90
2023-09-29T09:02:31.450Z,94.26
2023-09-29T09:04:58.516Z,93.41
2023-09-29T09:07:25.226Z,93.98
2023-09-29T09:09:54.999Z,94.24
2023-09-29T09:12:35.581Z,94.45
2023-09-29T09:15:06.939Z,94.75
2023-09-29T09:17:36.320Z,95.25
2023-09-29T09:20:03.150Z,94.72
2023-09-29T09:22:43.626Z,95.30
2023-09-29T09:25:13.861Z,95.52
2023-09-29T09:27:41.453Z,95.99
2023-09-29T09:30:21.921Z,97.21
2023-09-29T09:32:48.748Z,99.04
2023-09-29T09:35:30.152Z,100.00
2023-09-29T09:38:00.337Z,100.00
2023-09-29T09:40:27.619Z,100.00
2023-09-29T09:42:55.236Z,100.00
2023-09-29T09:45:30.662Z,100.00
2023-09-29T09:47:59.419Z,100.00
2023-09-29T09:50:31.847Z,100.00
2023-09-29T09:53:00.979Z,99.84
2023-09-29T09:55:42.644Z,98.49
2023-09-29T09:58:13.410Z,97.55
2023-09-29T10:00:45.549Z,96.80
2023-09-29T10:03:15.870Z,98.13
2023-09-29T10:05:50.524Z,98.72
2023-09-29T10:08:25.781Z,98.21
2023-09-29T10:10:52.584Z,96.85
2023-09-29T10:13:19.260Z,96.64
2023-09-29T10:15:56.379Z,95.91
2023-09-29T10:18:23.781Z,97.34
2023-09-29T10:21:02.222Z,98.60
2023-09-29T10:23:29.080Z,98.92
2023-09-29T10:26:00.939Z,98.45
2023-09-29T10:28:46.731Z,98.87
2023-09-29T10:31:16.224Z,100.00
2023-09-29T10:33:48.809Z,100.00
2023-09-29T10:36:16.160Z,100.00
2023-09-29T10:38:44.407Z,99.86
2023-09-29T10:41:27.208Z,99.24
2023-09-29T10:44:01.920Z,98.48
2023-09-29T10:46:30.209Z,98.41
2023-09-29T10:48:57.289Z,99.63
2023-09-29T10:51:25.795Z,100.00
2023-09-29T10:53:53.855Z,100.00
2023-09-29T10:56:22.711Z,100.00
2023-09-29T10:58:54.520Z,100.00
2023-09-29T11:01:26.522Z,100.00
2023-09-29T11:03:53.594Z,100.00
2023-09-29T11:06:21.665Z,100.00
2023-09-29T11:08:57.088Z,100.00
2023-09-29T11:11:27.386Z,100.00
2023-09-29T11:13:58.405Z,100.00
2023-09-29T11:16:28.392Z,100.00
2023-09-29T11:18:57.976Z,100.00
2023-09-29T11:21:38.315Z,100.00
2023-09-29T11:24:12.005Z,100.00
2023-09-29T11:26:43.792Z,100.00
2023-09-29T11:29:23.507Z,100.00
2023-09-29T11:31:57.099Z,100.00
2023-09-29T11:34:24.465Z,100.00
2023-09-29T11:36:52.072Z,100.00
2023-09-29T11:39:23.799Z,100.00
2023-09-29T11:41:51.927Z,100.00
2023-09-29T11:44:18.725Z,100.00
2023-09-29T11:46:45.967Z,100.00
2023-09-29T11:49:13.266Z,100.00
2023-09-29T11:51:40.296Z,100.00
2023-09-29T11:54:07.600Z,100.00
2023-09-29T11:56:35.272Z,100.00
2023-09-29T11:59:02.102Z,100.00
2023-09-29T12:01:29.157Z,100.00
2023-09-29T12:03:57.064Z,100.00
2023-09-29T12:06:24.192Z,100.00
2023-09-29T12:08:51.050Z,100.00
2023-09-29T12:11:20.774Z,100.00
2023-09-29T12:13:49.176Z,100.00
2023-09-29T12:16:16.583Z,100.00
2023-09-29T12:18:43.589Z,100.00
2023-09-29T12:21:12.342Z,100.00
2023-09-29T12:23:40.000Z,100.00
2023-09-29T12:26:07.703Z,100.00
2023-09-29T12:28:36.671Z,100.00
2023-09-29T12:31:04.085Z,100.00
2023-09-29T12:33:31.337Z,100.00
2023-09-29T12:35:58.205Z,100.00
2023-09-29T12:38:24.895Z,100.00
2023-09-29T12:40:51.929Z,100.00
2023-09-29T12:43:18.618Z,100.00
2023-09-29T12:45:45.534Z,100.00
2023-09-29T12:48:12.522Z,100.00
2023-09-29T12:50:40.793Z,100.00
2023-09-29T12:53:07.952Z,100.00
2023-09-29T12:55:34.707Z,100.00
2023-09-29T12:58:08.131Z,100.00
2023-09-29T13:00:35.687Z,100.00
2023-09-29T13:03:07.059Z,100.00
2023-09-29T13:05:37.503Z,100.00
2023-09-29T13:08:05.727Z,100.00
2023-09-29T13:10:36.306Z,100.00
2023-09-29T13:13:04.847Z,100.00
2023-09-29T13:15:32.626Z,100.00
2023-09-29T13:17:59.824Z,100.00
2023-09-29T13:20:26.627Z,100.00
2023-09-29T13:22:53.472Z,100.00
2023-09-29T13:25:20.221Z,100.00
2023-09-29T13:27:46.997Z,100.00
2023-09-29T13:30:15.076Z,100.00
2023-09-29T13:32:41.975Z,100.00
2023-09-29T13:35:09.632Z,100.00
2023-09-29T13:37:37.686Z,100.00
2023-09-29T13:40:07.259Z,100.00
2023-09-29T13:42:36.580Z,100.00
2023-09-29T13:45:04.809Z,98.06
2023-09-29T13:47:32.509Z,96.82
2023-09-29T13:50:00.806Z,95.07
2023-09-29T13:52:28.369Z,94.35
2023-09-29T13:54:55.125Z,93.60
2023-09-29T13:57:22.953Z,94.49
2023-09-29T13:59:49.852Z,93.07
2023-09-29T14:02:17.075Z,93.79
2023-09-29T14:04:45.137Z,94.74
2023-09-29T14:07:12.347Z,96.27
2023-09-29T14:09:39.811Z,95.32
2023-09-29T14:12:08.951Z,95.77
2023-09-29T14:14:36.135Z,94.92
2023-09-29T14:17:03.658Z,94.97
2023-09-29T14:19:30.401Z,95.19
2023-09-29T14:21:57.438Z,95.21
2023-09-29T14:24:24.262Z,95.14
2023-09-29T14:26:51.122Z,94.74
2023-09-29T14:29:18.778Z,94.17
2023-09-29T14:31:46.213Z,94.25
2023-09-29T14:34:17.157Z,95.04
2023-09-29T14:36:44.337Z,94.54
2023-09-29T14:39:11.192Z,94.87
2023-09-29T14:41:41.004Z,94.25
2023-09-29T14:44:08.325Z,94.28
2023-09-29T14:46:35.153Z,94.39
2023-09-29T14:49:02.637Z,93.81
2023-09-29T14:51:29.898Z,93.61
2023-09-29T14:53:57.803Z,92.90
2023-09-29T14:56:24.936Z,93.47
2023-09-29T14:58:51.974Z,93.76
2023-09-29T15:01:19.405Z,93.41
2023-09-29T15:03:46.872Z,92.88
2023-09-29T15:06:15.367Z,92.55
2023-09-29T15:08:43.123Z,91.89
2023-09-29T15:11:11.635Z,89.82
2023-09-29T15:13:40.940Z,89.60
2023-09-29T15:16:15.170Z,87.02
2023-09-29T15:18:50.450Z,82.43
2023-09-29T15:21:18.554Z,83.70
2023-09-29T15:23:45.684Z,83.41
2023-09-29T15:26:12.498Z,82.44
2023-09-29T15:28:39.245Z,82.96
2023-09-29T15:31:07.432Z,83.40
2023-09-29T15:33:34.355Z,83.72
2023-09-29T15:36:01.836Z,84.73
2023-09-29T15:38:28.821Z,85.74
2023-09-29T15:40:55.640Z,86.15
2023-09-29T15:43:23.206Z,85.37
2023-09-29T15:45:51.071Z,81.80
2023-09-29T15:48:17.953Z,81.30
2023-09-29T15:50:45.704Z,80.88
2023-09-29T15:53:12.592Z,82.96
2023-09-29T15:55:43.503Z,83.84
2023-09-29T15:58:11.555Z,83.32
2023-09-29T16:00:38.586Z,80.76
2023-09-29T16:03:07.209Z,80.47
2023-09-29T16:05:34.770Z,77.87
2023-09-29T16:08:01.656Z,76.19
2023-09-29T16:10:29.777Z,74.31
2023-09-29T16:12:57.494Z,73.20
2023-09-29T16:15:24.518Z,73.06
2023-09-29T16:17:53.285Z,74.04
2023-09-29T16:20:20.166Z,73.84
2023-09-29T16:22:46.906Z,73.99
2023-09-29T16:25:13.843Z,73.41
2023-09-29T16:27:40.794Z,73.89
2023-09-29T16:30:08.603Z,74.81
2023-09-29T16:32:35.440Z,75.42
2023-09-29T16:35:02.832Z,74.86
2023-09-29T16:37:31.089Z,78.39
2023-09-29T16:39:57.990Z,82.49
2023-09-29T16:42:24.767Z,85.17
2023-09-29T16:44:55.458Z,86.47
2023-09-29T16:47:22.229Z,87.97
2023-09-29T16:49:49.019Z,88.33
2023-09-29T16:52:15.920Z,89.12
2023-09-29T16:54:44.341Z,90.83
2023-09-29T16:57:11.759Z,91.83
2023-09-29T16:59:38.740Z,92.05
2023-09-29T17:02:05.459Z,92.42
2023-09-29T17:04:32.510Z,93.35
2023-09-29T17:07:02.588Z,93.60
2023-09-29T17:09:29.345Z,94.13
2023-09-29T17:11:56.115Z,94.24
2023-09-29T17:14:22.823Z,94.22
2023-09-29T17:16:49.639Z,95.11
2023-09-29T17:19:17.017Z,94.87
2023-09-29T17:21:43.742Z,95.92
2023-09-29T17:24:10.660Z,96.47
2023-09-29T17:26:37.410Z,97.04
2023-09-29T17:29:05.226Z,97.23
2023-09-29T17:31:32.631Z,97.38
2023-09-29T17:34:00.093Z,97.74
2023-09-29T17:36:27.208Z,97.56
2023-09-29T17:38:55.089Z,97.85
2023-09-29T17:41:21.686Z,98.56
2023-09-29T17:43:48.879Z,98.40
2023-09-29T17:46:15.688Z,99.40
2023-09-29T17:48:44.376Z,99.85
2023-09-29T17:51:12.828Z,99.79
2023-09-29T17:53:40.249Z,100.00
2023-09-29T17:56:08.022Z,100.00
2023-09-29T17:58:35.146Z,100.00
2023-09-29T18:01:06.100Z,100.00
2023-09-29T18:03:33.086Z,100.00
2023-09-29T18:06:00.381Z,100.00
2023-09-29T18:08:27.219Z,100.00
2023-09-29T18:10:54.417Z,100.00
2023-09-29T18:13:21.181Z,100.00
2023-09-29T18:15:47.968Z,100.00
2023-09-29T18:18:15.200Z,100.00
2023-09-29T18:20:41.974Z,100.00
2023-09-29T18:23:08.820Z,100.00
2023-09-29T18:25:35.590Z,100.00
2023-09-29T18:28:02.264Z,100.00
2023-09-29T18:30:29.357Z,100.00
2023-09-29T18:32:56.193Z,100.00
2023-09-29T18:35:23.022Z,100.00
2023-09-29T18:37:49.750Z,100.00
2023-09-29T18:40:16.665Z,100.00
2023-09-29T18:42:44.361Z,100.00
2023-09-29T18:45:11.857Z,100.00
2023-09-29T18:47:38.956Z,100.00
2023-09-29T18:50:06.214Z,100.00
2023-09-29T18:52:32.888Z,100.00
2023-09-29T18:54:59.679Z,100.00
2023-09-29T18:57:26.467Z,100.00
2023-09-29T18:59:53.429Z,100.00
2023-09-29T19:02:20.625Z,100.00
2023-09-29T19:04:49.706Z,100.00
2023-09-29T19:07:17.999Z,100.00
2023-09-29T19:09:45.246Z,100.00
2023-09-29T19:12:12.675Z,100.00
2023-09-29T19:14:39.528Z,100.00
2023-09-29T19:17:06.325Z,100.00
2023-09-29T19:19:35.118Z,100.00
2023-09-29T19:22:02.651Z,100.00
2023-09-29T19:24:29.466Z,100.00
2023-09-29T19:26:56.922Z,100.00
2023-09-29T19:29:23.802Z,100.00
2023-09-29T19:31:50.652Z,100.00
2023-09-29T19:34:17.660Z,100.00
2023-09-29T19:36:44.557Z,100.00
2023-09-29T19:39:11.372Z,100.00
2023-09-29T19:41:38.229Z,100.00
2023-09-29T19:44:05.337Z,100.00
2023-09-29T19:46:36.215Z,100.00
2023-09-29T19:49:05.107Z,100.00
2023-09-29T19:51:32.027Z,100.00
2023-09-29T19:53:59.580Z,100.00
2023-09-29T19:56:34.050Z,100.00
2023-09-29T19:59:01.203Z,100.00
2023-09-29T20:01:27.927Z,100.00
2023-09-29T20:03:54.886Z,100.00
2023-09-29T20:06:21.858Z,100.00
2023-09-29T20:08:51.662Z,100.00
2023-09-29T20:11:20.764Z,100.00
2023-09-29T20:13:47.552Z,100.00
2023-09-29T20:16:17.194Z,100.00
2023-09-29T20:18:47.153Z,100.00
2023-09-29T20:21:17.255Z,100.00
2023-09-29T20:23:44.264Z,100.00
2023-09-29T20:26:11.143Z,100.00
2023-09-29T20:28:43.258Z,100.00
2023-09-29T20:31:10.648Z,100.00
2023-09-29T20:33:37.445Z,100.00
2023-09-29T20:36:04.605Z,100.00
2023-09-29T20:38:31.350Z,100.00
2023-09-29T20:40:58.179Z,100.00
2023-09-29T20:43:24.860Z,100.00
2023-09-29T20:45:51.837Z,100.00
2023-09-29T20:48:19.092Z,100.00
2023-09-29T20:50:45.999Z,100.00
2023-09-29T20:53:13.466Z,100.00
2023-09-29T20:55:40.312Z,100.00
2023-09-29T20:58:07.074Z,100.00
2023-09-29T21:00:34.779Z,100.00
2023-09-29T21:03:02.108Z,100.00
2023-09-29T21:05:29.123Z,100.00
2023-09-29T21:07:55.952Z,100.00
2023-09-29T21:10:22.805Z,100.00
2023-09-29T21:12:49.736Z,100.00
2023-09-29T21:15:16.895Z,100.00
2023-09-29T21:17:43.995Z,100.00
2023-09-29T21:20:12.680Z,100.00
2023-09-29T21:22:42.960Z,100.00
2023-09-29T21:25:12.490Z,100.00
2023-09-29T21:27:40.426Z,100.00
2023-09-29T21:30:09.827Z,100.00
2023-09-29T21:32:37.558Z,100.00
2023-09-29T21:35:05.826Z,100.00
2023-09-29T21:37:32.803Z,100.00
2023-09-29T21:39:59.684Z,100.00
2023-09-29T21:42:26.576Z,100.00
2023-09-29T21:44:53.364Z,100.00
2023-09-29T21:47:21.071Z,100.00
2023-09-29T21:49:47.939Z,100.00
2023-09-29T21:52:14.678Z,100.00
2023-09-29T21:54:42.376Z,100.00
2023-09-29T21:57:09.180Z,100.00
2023-09-29T21:59:36.889Z,100.00
2023-09-29T22:02:03.715Z,100.00
2023-09-29T22:04:30.761Z,100.00
2023-09-29T22:06:58.206Z,100.00
2023-09-29T22:09:24.988Z,100.00
2023-09-29T22:11:51.772Z,100.00
2023-09-29T22:14:19.141Z,100.00
2023-09-29T22:16:46.484Z,100.00
2023-09-29T22:19:13.646Z,100.00
2023-09-29T22:21:40.640Z,100.00
2023-09-29T22:24:07.737Z,100.00
2023-09-29T22:26:36.574Z,100.00
2023-09-29T22:29:04.413Z,100.00
2023-09-29T22:31:31.841Z,100.00
2023-09-29T22:33:59.261Z,100.00
2023-09-29T22:36:26.808Z,100.00
2023-09-29T22:38:54.408Z,100.00
2023-09-29T22:41:22.152Z,100.00
2023-09-29T22:43:48.958Z,100.00
2023-09-29T22:46:15.915Z,100.00
2023-09-29T22:48:42.988Z,100.00
2023-09-29T22:51:10.468Z,100.00
2023-09-29T22:53:38.806Z,100.00
2023-09-29T22:56:10.923Z,100.00
2023-09-29T22:58:37.624Z,100.00
2023-09-29T23:01:04.897Z,100.00
2023-09-29T23:03:31.867Z,100.00
2023-09-29T23:05:59.203Z,100.00
2023-09-29T23:08:25.927Z,100.00
2023-09-29T23:10:52.961Z,100.00
2023-09-29T23:13:20.135Z,100.00
2023-09-29T23:15:47.434Z,100.00
2023-09-29T23:18:14.536Z,100.00
2023-09-29T23:20:43.072Z,100.00
2023-09-29T23:23:10.152Z,100.00
2023-09-29T23:25:37.092Z,100.00
2023-09-29T23:28:04.387Z,100.00
2023-09-29T23:30:32.153Z,100.00
2023-09-29T23:32:59.953Z,100.00
2023-09-29T23:35:27.684Z,100.00
2023-09-29T23:37:54.774Z,100.00
2023-09-29T23:40:21.664Z,100.00
2023-09-29T23:42:48.541Z,100.00
2023-09-29T23:45:15.594Z,100.00
2023-09-29T23:47:44.394Z,100.00
2023-09-29T23:50:11.662Z,100.00
2023-09-29T23:52:39.078Z,100.00
2023-09-29T23:55:07.021Z,100.00
2023-09-29T23:57:33.964Z,100.00
